sensor_id;sensor_type;location;lat;lon;timestamp;pressure;altitude;pressure_sealevel;temperature;humidity
60845;BME280;47984;51.250;6.712;2022-09-09T00:02:18;100625.13;;;14.43;50.94
60845;BME280;47984;51.250;6.712;2022-09-09T00:05:29;100629.63;;;14.41;51.22
60845;BME280;47984;51.250;6.712;2022-09-09T00:08:04;100630.50;;;14.40;51.24
60845;BME280;47984;51.250;6.712;2022-09-09T00:10:37;100630.59;;;14.38;50.95
60845;BME280;47984;51.250;6.712;2022-09-09T00:13:38;100630.66;;;14.37;51.38
60845;BME280;47984;51.250;6.712;2022-09-09T00:16:54;100637.75;;;14.35;51.41
60845;BME280;47984;51.250;6.712;2022-09-09T00:19:33;100624.72;;;14.33;51.30
60845;BME280;47984;51.250;6.712;2022-09-09T00:22:54;100620.44;;;14.32;51.10
60845;BME280;47984;51.250;6.712;2022-09-09T00:28:26;100620.47;;;14.31;51.35
60845;BME280;47984;51.250;6.712;2022-09-09T00:31:37;100630.25;;;14.27;50.83
60845;BME280;47984;51.250;6.712;2022-09-09T00:34:22;100629.41;;;14.26;51.52
60845;BME280;47984;51.250;6.712;2022-09-09T00:36:56;100623.38;;;14.24;50.89
60845;BME280;47984;51.250;6.712;2022-09-09T00:39:51;100619.94;;;14.24;51.09
60845;BME280;47984;51.250;6.712;2022-09-09T00:42:42;100619.09;;;14.23;51.46
60845;BME280;47984;51.250;6.712;2022-09-09T00:48:11;100610.75;;;14.15;51.02
60845;BME280;47984;51.250;6.712;2022-09-09T00:50:53;100616.66;;;14.19;51.52
60845;BME280;47984;51.250;6.712;2022-09-09T00:54:05;100618.44;;;14.18;51.06
60845;BME280;47984;51.250;6.712;2022-09-09T00:57:13;100621.13;;;14.17;51.14
60845;BME280;47984;51.250;6.712;2022-09-09T00:59:58;100613.34;;;14.15;51.54
60845;BME280;47984;51.250;6.712;2022-09-09T01:12:16;100606.63;;;14.10;51.58
60845;BME280;47984;51.250;6.712;2022-09-09T01:14:58;100609.34;;;14.08;51.28
60845;BME280;47984;51.250;6.712;2022-09-09T01:18:30;100613.72;;;14.08;51.42
60845;BME280;47984;51.250;6.712;2022-09-09T01:27:05;100602.69;;;14.01;51.75
60845;BME280;47984;51.250;6.712;2022-09-09T01:29:38;100607.06;;;14.00;51.60
60845;BME280;47984;51.250;6.712;2022-09-09T01:38:09;100598.75;;;13.92;51.60
60845;BME280;47984;51.250;6.712;2022-09-09T01:40:36;100606.59;;;13.92;51.56
60845;BME280;47984;51.250;6.712;2022-09-09T01:43:05;100600.56;;;13.90;51.48
60845;BME280;47984;51.250;6.712;2022-09-09T01:46:00;100606.63;;;13.91;51.45
60845;BME280;47984;51.250;6.712;2022-09-09T01:48:32;100592.25;;;13.82;52.01
60845;BME280;47984;51.250;6.712;2022-09-09T01:51:02;100605.03;;;13.88;51.76
60845;BME280;47984;51.250;6.712;2022-09-09T01:53:29;100593.78;;;13.86;51.52
60845;BME280;47984;51.250;6.712;2022-09-09T01:59:11;100599.06;;;13.85;51.38
60845;BME280;47984;51.250;6.712;2022-09-09T02:02:30;100602.59;;;13.84;51.98
60845;BME280;47984;51.250;6.712;2022-09-09T02:05:39;100596.53;;;13.83;51.90
60845;BME280;47984;51.250;6.712;2022-09-09T02:08:18;100600.84;;;13.84;51.86
60845;BME280;47984;51.250;6.712;2022-09-09T02:11:18;100599.06;;;13.85;51.55
60845;BME280;47984;51.250;6.712;2022-09-09T02:13:57;100608.69;;;13.84;51.99
60845;BME280;47984;51.250;6.712;2022-09-09T02:17:10;100603.44;;;13.84;51.51
60845;BME280;47984;51.250;6.712;2022-09-09T02:19:54;100604.28;;;13.85;51.76
60845;BME280;47984;51.250;6.712;2022-09-09T02:22:43;100610.41;;;13.85;51.54
60845;BME280;47984;51.250;6.712;2022-09-09T02:25:18;100606.84;;;13.86;51.92
60845;BME280;47984;51.250;6.712;2022-09-09T02:27:50;100596.41;;;13.86;51.63
60845;BME280;47984;51.250;6.712;2022-09-09T02:30:47;100597.25;;;13.87;51.52
60845;BME280;47984;51.250;6.712;2022-09-09T02:33:42;100598.03;;;13.89;51.57
60845;BME280;47984;51.250;6.712;2022-09-09T02:36:13;100595.47;;;13.87;52.03
60845;BME280;47984;51.250;6.712;2022-09-09T02:38:48;100595.47;;;13.87;51.60
60845;BME280;47984;51.250;6.712;2022-09-09T02:41:41;100594.63;;;13.87;51.56
60845;BME280;47984;51.250;6.712;2022-09-09T02:44:16;100597.25;;;13.87;51.63
60845;BME280;47984;51.250;6.712;2022-09-09T02:47:21;100578.09;;;13.86;52.02
60845;BME280;47984;51.250;6.712;2022-09-09T02:50:13;100589.34;;;13.88;51.99
60845;BME280;47984;51.250;6.712;2022-09-09T02:55:40;100582.25;;;13.90;51.65
60845;BME280;47984;51.250;6.712;2022-09-09T02:58:24;100578.94;;;13.87;52.06
60845;BME280;47984;51.250;6.712;2022-09-09T03:00:52;100587.50;;;13.90;51.63
60845;BME280;47984;51.250;6.712;2022-09-09T03:03:23;100586.75;;;13.88;52.02
60845;BME280;47984;51.250;6.712;2022-09-09T03:05:50;100582.25;;;13.90;52.00
60845;BME280;47984;51.250;6.712;2022-09-09T03:08:17;100577.13;;;13.89;51.90
60845;BME280;47984;51.250;6.712;2022-09-09T03:10:45;100577.97;;;13.89;51.74
60845;BME280;47984;51.250;6.712;2022-09-09T03:13:15;100565.25;;;13.81;52.16
60845;BME280;47984;51.250;6.712;2022-09-09T03:15:42;100585.81;;;13.89;51.78
60845;BME280;47984;51.250;6.712;2022-09-09T03:18:14;100571.91;;;13.89;51.84
60845;BME280;47984;51.250;6.712;2022-09-09T03:20:42;100577.88;;;13.91;52.23
60845;BME280;47984;51.250;6.712;2022-09-09T03:23:10;100571.94;;;13.87;52.28
60845;BME280;47984;51.250;6.712;2022-09-09T03:25:49;100565.84;;;13.88;52.32
60845;BME280;47984;51.250;6.712;2022-09-09T03:28:19;100567.50;;;13.89;52.32
60845;BME280;47984;51.250;6.712;2022-09-09T03:30:58;100569.19;;;13.90;52.17
60845;BME280;47984;51.250;6.712;2022-09-09T03:33:25;100574.44;;;13.90;52.23
60845;BME280;47984;51.250;6.712;2022-09-09T03:36:05;100575.22;;;13.92;52.07
60845;BME280;47984;51.250;6.712;2022-09-09T03:38:36;100574.38;;;13.92;52.06
60845;BME280;47984;51.250;6.712;2022-09-09T03:41:11;100575.22;;;13.92;51.89
60845;BME280;47984;51.250;6.712;2022-09-09T03:43:48;100578.59;;;13.94;51.75
60845;BME280;47984;51.250;6.712;2022-09-09T03:46:21;100569.91;;;13.94;52.36
60845;BME280;47984;51.250;6.712;2022-09-09T03:48:55;100582.13;;;13.93;52.15
60845;BME280;47984;51.250;6.712;2022-09-09T03:51:25;100577.75;;;13.94;52.38
60845;BME280;47984;51.250;6.712;2022-09-09T03:53:51;100573.44;;;13.93;52.44
60845;BME280;47984;51.250;6.712;2022-09-09T03:56:30;100573.44;;;13.93;51.92
60845;BME280;47984;51.250;6.712;2022-09-09T03:59:01;100568.22;;;13.93;52.01
60845;BME280;47984;51.250;6.712;2022-09-09T04:01:30;100576.06;;;13.93;52.31
60845;BME280;47984;51.250;6.712;2022-09-09T04:03:59;100575.22;;;13.92;52.33
60845;BME280;47984;51.250;6.712;2022-09-09T04:06:30;100573.50;;;13.91;51.96
60845;BME280;47984;51.250;6.712;2022-09-09T04:08:59;100569.19;;;13.90;52.12
60845;BME280;47984;51.250;6.712;2022-09-09T04:11:40;100571.81;;;13.90;52.13
60845;BME280;47984;51.250;6.712;2022-09-09T04:14:09;100577.97;;;13.89;51.92
60845;BME280;47984;51.250;6.712;2022-09-09T04:16:36;100572.88;;;13.86;52.30
60845;BME280;47984;51.250;6.712;2022-09-09T04:19:07;100577.97;;;13.89;52.21
60845;BME280;47984;51.250;6.712;2022-09-09T04:21:36;100567.72;;;13.85;52.50
60845;BME280;47984;51.250;6.712;2022-09-09T04:24:20;100561.06;;;13.77;52.42
60845;BME280;47984;51.250;6.712;2022-09-09T04:26:50;100570.31;;;13.85;52.16
60845;BME280;47984;51.250;6.712;2022-09-09T04:29:19;100566.03;;;13.84;52.49
60845;BME280;47984;51.250;6.712;2022-09-09T04:31:48;100577.19;;;13.87;52.08
60845;BME280;47984;51.250;6.712;2022-09-09T04:34:15;100578.94;;;13.87;52.21
60845;BME280;47984;51.250;6.712;2022-09-09T04:36:42;100575.41;;;13.88;52.34
60845;BME280;47984;51.250;6.712;2022-09-09T04:39:09;100568.59;;;13.85;52.22
60845;BME280;47984;51.250;6.712;2022-09-09T04:41:36;100573.72;;;13.87;52.13
60845;BME280;47984;51.250;6.712;2022-09-09T04:44:04;100568.50;;;13.87;52.28
60845;BME280;47984;51.250;6.712;2022-09-09T04:46:31;100577.19;;;13.87;52.28
60845;BME280;47984;51.250;6.712;2022-09-09T04:48:58;100568.50;;;13.87;52.19
60845;BME280;47984;51.250;6.712;2022-09-09T04:51:25;100580.63;;;13.88;52.21
60845;BME280;47984;51.250;6.712;2022-09-09T04:53:51;100574.56;;;13.87;52.65
60845;BME280;47984;51.250;6.712;2022-09-09T04:56:20;100567.66;;;13.86;52.57
60845;BME280;47984;51.250;6.712;2022-09-09T04:58:47;100571.94;;;13.87;52.34
60845;BME280;47984;51.250;6.712;2022-09-09T05:01:19;100576.28;;;13.88;52.17
60845;BME280;47984;51.250;6.712;2022-09-09T05:03:48;100573.59;;;13.90;52.46
60845;BME280;47984;51.250;6.712;2022-09-09T05:06:18;100581.44;;;13.90;52.42
60845;BME280;47984;51.250;6.712;2022-09-09T05:08:45;100571.06;;;13.88;52.54
60845;BME280;47984;51.250;6.712;2022-09-09T05:11:20;100571.06;;;13.88;52.52
60845;BME280;47984;51.250;6.712;2022-09-09T05:13:47;100570.13;;;13.89;52.24
60845;BME280;47984;51.250;6.712;2022-09-09T05:16:14;100569.28;;;13.89;52.57
60845;BME280;47984;51.250;6.712;2022-09-09T05:18:41;100575.34;;;13.89;52.59
60845;BME280;47984;51.250;6.712;2022-09-09T05:21:15;100561.59;;;13.86;52.32
60845;BME280;47984;51.250;6.712;2022-09-09T05:23:42;100570.13;;;13.89;52.63
60845;BME280;47984;51.250;6.712;2022-09-09T05:26:16;100571.91;;;13.89;52.35
60845;BME280;47984;51.250;6.712;2022-09-09T05:28:44;100566.66;;;13.89;52.50
60845;BME280;47984;51.250;6.712;2022-09-09T05:31:13;100569.28;;;13.89;52.40
60845;BME280;47984;51.250;6.712;2022-09-09T05:33:42;100564.06;;;13.89;52.85
60845;BME280;47984;51.250;6.712;2022-09-09T05:36:14;100569.34;;;13.87;52.50
60845;BME280;47984;51.250;6.712;2022-09-09T05:38:42;100570.03;;;13.91;52.72
60845;BME280;47984;51.250;6.712;2022-09-09T05:41:10;100569.19;;;13.90;52.38
60845;BME280;47984;51.250;6.712;2022-09-09T05:43:38;100563.97;;;13.90;52.64
60845;BME280;47984;51.250;6.712;2022-09-09T05:46:14;100566.53;;;13.92;52.64
60845;BME280;47984;51.250;6.712;2022-09-09T05:48:43;100565.66;;;13.91;52.75
60845;BME280;47984;51.250;6.712;2022-09-09T05:51:15;100571.66;;;13.93;52.75
60845;BME280;47984;51.250;6.712;2022-09-09T05:53:42;100570.75;;;13.94;52.92
60845;BME280;47984;51.250;6.712;2022-09-09T05:56:12;100571.66;;;13.93;52.73
60845;BME280;47984;51.250;6.712;2022-09-09T05:58:41;100582.91;;;13.95;52.76
60845;BME280;47984;51.250;6.712;2022-09-09T06:01:13;100573.31;;;13.96;52.84
60845;BME280;47984;51.250;6.712;2022-09-09T06:03:41;100575.06;;;13.95;52.72
60845;BME280;47984;51.250;6.712;2022-09-09T06:06:10;100586.28;;;13.97;52.77
60845;BME280;47984;51.250;6.712;2022-09-09T06:08:40;100583.66;;;13.97;52.61
60845;BME280;47984;51.250;6.712;2022-09-09T06:11:16;100583.63;;;13.99;52.31
60845;BME280;47984;51.250;6.712;2022-09-09T06:13:43;100577.53;;;13.98;52.50
60845;BME280;47984;51.250;6.712;2022-09-09T06:16:12;100578.38;;;13.99;52.37
60845;BME280;47984;51.250;6.712;2022-09-09T06:18:40;100582.69;;;14.00;52.89
60845;BME280;47984;51.250;6.712;2022-09-09T06:21:15;100586.22;;;13.99;52.68
60845;BME280;47984;51.250;6.712;2022-09-09T06:23:42;100585.31;;;14.00;53.11
60845;BME280;47984;51.250;6.712;2022-09-09T06:26:12;100583.53;;;14.00;52.50
60845;BME280;47984;51.250;6.712;2022-09-09T06:28:40;100586.09;;;14.02;52.86
60845;BME280;47984;51.250;6.712;2022-09-09T06:31:10;100593.78;;;14.05;52.52
60845;BME280;47984;51.250;6.712;2022-09-09T06:33:39;100586.78;;;14.06;52.54
60845;BME280;47984;51.250;6.712;2022-09-09T06:36:12;100585.03;;;14.06;53.00
60845;BME280;47984;51.250;6.712;2022-09-09T06:38:44;100584.97;;;14.08;52.67
60845;BME280;47984;51.250;6.712;2022-09-09T06:41:14;100586.59;;;14.10;52.87
60845;BME280;47984;51.250;6.712;2022-09-09T06:43:41;100587.44;;;14.11;52.71
60845;BME280;47984;51.250;6.712;2022-09-09T06:46:11;100591.72;;;14.12;52.67
60845;BME280;47984;51.250;6.712;2022-09-09T06:48:39;100588.13;;;14.14;52.71
60845;BME280;47984;51.250;6.712;2022-09-09T06:51:15;100587.22;;;14.15;52.93
60845;BME280;47984;51.250;6.712;2022-09-09T06:53:43;100587.91;;;14.19;52.89
60845;BME280;47984;51.250;6.712;2022-09-09T06:58:44;100585.09;;;14.23;52.93
60845;BME280;47984;51.250;6.712;2022-09-09T07:01:25;100586.72;;;14.26;52.93
60845;BME280;47984;51.250;6.712;2022-09-09T07:03:54;100592.66;;;14.30;53.00
60845;BME280;47984;51.250;6.712;2022-09-09T07:06:23;100592.56;;;14.31;53.14
60845;BME280;47984;51.250;6.712;2022-09-09T07:08:55;100589.78;;;14.34;52.62
60845;BME280;47984;51.250;6.712;2022-09-09T07:11:25;100599.28;;;14.37;53.07
60845;BME280;47984;51.250;6.712;2022-09-09T07:13:53;100595.66;;;14.39;52.67
60845;BME280;47984;51.250;6.712;2022-09-09T07:16:21;100594.69;;;14.42;53.19
60845;BME280;47984;51.250;6.712;2022-09-09T07:18:52;100588.50;;;14.43;52.85
60845;BME280;47984;51.250;6.712;2022-09-09T07:21:19;100600.59;;;14.45;53.23
60845;BME280;47984;51.250;6.712;2022-09-09T07:23:47;100593.69;;;14.44;52.62
60845;BME280;47984;51.250;6.712;2022-09-09T07:26:16;100605.69;;;14.48;52.53
60845;BME280;47984;51.250;6.712;2022-09-09T07:28:46;100607.38;;;14.49;53.03
60845;BME280;47984;51.250;6.712;2022-09-09T07:31:15;100601.41;;;14.47;52.83
60845;BME280;47984;51.250;6.712;2022-09-09T07:33:44;100611.72;;;14.50;53.24
60845;BME280;47984;51.250;6.712;2022-09-09T07:36:31;100615.09;;;14.53;53.21
60845;BME280;47984;51.250;6.712;2022-09-09T07:39:02;100613.97;;;14.58;52.74
60845;BME280;47984;51.250;6.712;2022-09-09T07:41:31;100611.22;;;14.61;52.80
60845;BME280;47984;51.250;6.712;2022-09-09T07:44:08;100607.59;;;14.64;52.92
60845;BME280;47984;51.250;6.712;2022-09-09T07:46:37;100613.47;;;14.69;53.01
60845;BME280;47984;51.250;6.712;2022-09-09T07:49:10;100616.94;;;14.69;53.08
60845;BME280;47984;51.250;6.712;2022-09-09T07:51:39;100605.53;;;14.70;53.24
60845;BME280;47984;51.250;6.712;2022-09-09T07:54:09;100621.94;;;14.74;52.92
60845;BME280;47984;51.250;6.712;2022-09-09T07:56:39;100625.38;;;14.75;52.84
60845;BME280;47984;51.250;6.712;2022-09-09T07:59:06;100623.56;;;14.77;52.65
60845;BME280;47984;51.250;6.712;2022-09-09T08:01:39;100623.41;;;14.80;52.77
60845;BME280;47984;51.250;6.712;2022-09-09T08:04:09;100619.78;;;14.82;52.67
60845;BME280;47984;51.250;6.712;2022-09-09T08:06:39;100628.44;;;14.84;53.15
60845;BME280;47984;51.250;6.712;2022-09-09T08:09:08;100625.81;;;14.84;52.90
60845;BME280;47984;51.250;6.712;2022-09-09T08:11:36;100619.78;;;14.82;52.78
60845;BME280;47984;51.250;6.712;2022-09-09T08:14:06;100628.44;;;14.84;52.86
60845;BME280;47984;51.250;6.712;2022-09-09T08:16:37;100623.94;;;14.86;53.02
60845;BME280;47984;51.250;6.712;2022-09-09T08:19:04;100616.88;;;14.88;53.04
60845;BME280;47984;51.250;6.712;2022-09-09T08:21:36;100622.94;;;14.89;52.69
60845;BME280;47984;51.250;6.712;2022-09-09T08:24:03;100630.59;;;14.93;53.07
60845;BME280;47984;51.250;6.712;2022-09-09T08:26:34;100625.34;;;14.93;53.20
60845;BME280;47984;51.250;6.712;2022-09-09T08:29:03;100631.19;;;14.99;53.14
60845;BME280;47984;51.250;6.712;2022-09-09T08:34:00;100624.03;;;15.02;53.10
60845;BME280;47984;51.250;6.712;2022-09-09T08:36:29;100619.56;;;15.04;52.76
60845;BME280;47984;51.250;6.712;2022-09-09T08:38:57;100623.81;;;15.07;52.54
60845;BME280;47984;51.250;6.712;2022-09-09T08:52:22;100623.72;;;15.26;52.79
60845;BME280;47984;51.250;6.712;2022-09-09T08:54:50;100618.09;;;15.33;52.39
60845;BME280;47984;51.250;6.712;2022-09-09T08:57:22;100619.56;;;15.39;52.45
60845;BME280;47984;51.250;6.712;2022-09-09T08:59:54;100615.91;;;15.43;52.84
60845;BME280;47984;51.250;6.712;2022-09-09T09:03:00;100628.59;;;15.51;52.07
60845;BME280;47984;51.250;6.712;2022-09-09T09:11:39;100627.16;;;15.61;52.37
60845;BME280;47984;51.250;6.712;2022-09-09T09:14:13;100627.16;;;15.61;52.58
60845;BME280;47984;51.250;6.712;2022-09-09T09:19:27;100635.56;;;15.68;52.67
60845;BME280;47984;51.250;6.712;2022-09-09T09:22:05;100635.50;;;15.69;52.21
60845;BME280;47984;51.250;6.712;2022-09-09T09:24:42;100636.25;;;15.71;52.27
60845;BME280;47984;51.250;6.712;2022-09-09T09:27:21;100625.84;;;15.70;52.52
60845;BME280;47984;51.250;6.712;2022-09-09T09:29:54;100635.50;;;15.69;52.37
60845;BME280;47984;51.250;6.712;2022-09-09T09:32:58;100640.88;;;15.66;52.36
60845;BME280;47984;51.250;6.712;2022-09-09T09:35:26;100636.50;;;15.67;52.64
60845;BME280;47984;51.250;6.712;2022-09-09T09:37:53;100631.94;;;15.70;52.69
60845;BME280;47984;51.250;6.712;2022-09-09T09:40:51;100637.00;;;15.73;52.84
60845;BME280;47984;51.250;6.712;2022-09-09T09:43:23;100636.00;;;15.76;52.54
60845;BME280;47984;51.250;6.712;2022-09-09T09:45:50;100634.91;;;15.80;52.46
60845;BME280;47984;51.250;6.712;2022-09-09T09:48:37;100637.91;;;15.90;52.48
60845;BME280;47984;51.250;6.712;2022-09-09T09:51:09;100634.03;;;15.97;52.51
60845;BME280;47984;51.250;6.712;2022-09-09T09:53:38;100623.44;;;15.98;52.04
60845;BME280;47984;51.250;6.712;2022-09-09T09:56:10;100626.41;;;16.08;52.35
60845;BME280;47984;51.250;6.712;2022-09-09T10:01:31;100630.00;;;16.23;51.82
60845;BME280;47984;51.250;6.712;2022-09-09T10:04:16;100630.50;;;16.29;52.06
60845;BME280;47984;51.250;6.712;2022-09-09T10:06:45;100626.72;;;16.35;51.54
60845;BME280;47984;51.250;6.712;2022-09-09T10:09:29;100626.47;;;16.40;51.74
60845;BME280;47984;51.250;6.712;2022-09-09T10:15:42;100626.97;;;16.46;51.77
60845;BME280;47984;51.250;6.712;2022-09-09T10:18:45;100625.94;;;16.49;52.08
60845;BME280;47984;51.250;6.712;2022-09-09T10:26:55;100625.59;;;16.55;51.42
60845;BME280;47984;51.250;6.712;2022-09-09T10:29:55;100616.97;;;16.53;51.80
60845;BME280;47984;51.250;6.712;2022-09-09T10:32:39;100614.94;;;16.58;52.21
60845;BME280;47984;51.250;6.712;2022-09-09T10:38:31;100613.66;;;16.65;51.91
60845;BME280;47984;51.250;6.712;2022-09-09T10:41:09;100613.47;;;16.68;51.59
60845;BME280;47984;51.250;6.712;2022-09-09T10:44:06;100619.38;;;16.72;52.21
60845;BME280;47984;51.250;6.712;2022-09-09T10:53:02;100601.31;;;16.82;51.87
60845;BME280;47984;51.250;6.712;2022-09-09T10:55:42;100609.13;;;16.83;51.24
60845;BME280;47984;51.250;6.712;2022-09-09T10:58:20;100608.09;;;16.86;51.42
60845;BME280;47984;51.250;6.712;2022-09-09T11:00:59;100604.53;;;16.87;52.04
60845;BME280;47984;51.250;6.712;2022-09-09T11:03:31;100595.72;;;16.88;51.35
60845;BME280;47984;51.250;6.712;2022-09-09T11:06:22;100600.91;;;16.89;51.19
60845;BME280;47984;51.250;6.712;2022-09-09T11:08:52;100596.50;;;16.90;51.36
60845;BME280;47984;51.250;6.712;2022-09-09T11:11:29;100601.63;;;16.91;51.33
60845;BME280;47984;51.250;6.712;2022-09-09T11:14:05;100581.50;;;16.92;51.26
60845;BME280;47984;51.250;6.712;2022-09-09T11:16:47;100596.50;;;16.90;51.26
60845;BME280;47984;51.250;6.712;2022-09-09T11:19:33;100600.91;;;16.89;51.28
60845;BME280;47984;51.250;6.712;2022-09-09T11:22:04;100612.25;;;16.90;51.54
60845;BME280;47984;51.250;6.712;2022-09-09T11:27:24;100617.50;;;16.90;51.14
60845;BME280;47984;51.250;6.712;2022-09-09T11:30:20;100616.66;;;16.89;51.38
60845;BME280;47984;51.250;6.712;2022-09-09T11:38:52;100596.16;;;16.96;51.60
60845;BME280;47984;51.250;6.712;2022-09-09T11:41:20;100600.28;;;17.00;51.36
60845;BME280;47984;51.250;6.712;2022-09-09T11:43:50;100595.81;;;17.02;51.34
60845;BME280;47984;51.250;6.712;2022-09-09T11:46:31;100598.97;;;17.07;51.33
60845;BME280;47984;51.250;6.712;2022-09-09T11:49:03;100604.16;;;17.09;51.39
60845;BME280;47984;51.250;6.712;2022-09-09T11:51:31;100604.81;;;17.12;51.26
60845;BME280;47984;51.250;6.712;2022-09-09T11:54:29;100610.84;;;17.14;51.55
60845;BME280;47984;51.250;6.712;2022-09-09T11:56:56;100610.84;;;17.14;51.16
60845;BME280;47984;51.250;6.712;2022-09-09T11:59:27;100608.09;;;17.16;51.68
60845;BME280;47984;51.250;6.712;2022-09-09T12:02:17;100613.47;;;17.14;50.68
60845;BME280;47984;51.250;6.712;2022-09-09T12:10:23;100605.03;;;17.23;51.43
60845;BME280;47984;51.250;6.712;2022-09-09T12:12:52;100598.75;;;17.26;50.82
60845;BME280;47984;51.250;6.712;2022-09-09T12:15:25;100600.25;;;17.30;51.13
60845;BME280;47984;51.250;6.712;2022-09-09T12:17:57;100594.16;;;17.30;51.11
60845;BME280;47984;51.250;6.712;2022-09-09T12:20:39;100600.06;;;17.33;51.09
60845;BME280;47984;51.250;6.712;2022-09-09T12:31:28;100595.88;;;17.45;50.54
60845;BME280;47984;51.250;6.712;2022-09-09T12:39:58;100590.63;;;17.45;50.61
60845;BME280;47984;51.250;6.712;2022-09-09T12:42:26;100598.56;;;17.43;50.75
60845;BME280;47984;51.250;6.712;2022-09-09T12:45:02;100591.63;;;17.42;50.54
60845;BME280;47984;51.250;6.712;2022-09-09T12:47:38;100606.81;;;17.37;50.67
60845;BME280;47984;51.250;6.712;2022-09-09T12:50:20;100609.63;;;17.34;51.13
60845;BME280;47984;51.250;6.712;2022-09-09T12:52:50;100611.59;;;17.31;51.29
60845;BME280;47984;51.250;6.712;2022-09-09T12:55:28;100613.59;;;17.27;51.07
60845;BME280;47984;51.250;6.712;2022-09-09T12:57:57;100611.03;;;17.25;51.08
60845;BME280;47984;51.250;6.712;2022-09-09T13:00:26;100609.53;;;17.21;51.13
60845;BME280;47984;51.250;6.712;2022-09-09T13:02:59;100612.16;;;17.21;50.91
60845;BME280;47984;51.250;6.712;2022-09-09T13:05:38;100607.09;;;17.18;50.72
60845;BME280;47984;51.250;6.712;2022-09-09T13:08:10;100603.50;;;17.19;51.41
60845;BME280;47984;51.250;6.712;2022-09-09T13:10:50;100606.13;;;17.19;50.85
60845;BME280;47984;51.250;6.712;2022-09-09T13:13:31;100601.75;;;17.20;51.44
60845;BME280;47984;51.250;6.712;2022-09-09T13:16:04;100591.25;;;17.20;50.93
60845;BME280;47984;51.250;6.712;2022-09-09T13:18:35;100591.91;;;17.23;50.68
60845;BME280;47984;51.250;6.712;2022-09-09T13:21:03;100594.41;;;17.25;50.68
60845;BME280;47984;51.250;6.712;2022-09-09T13:23:33;100585.63;;;17.26;50.95
60845;BME280;47984;51.250;6.712;2022-09-09T13:26:05;100584.56;;;17.29;51.04
60845;BME280;47984;51.250;6.712;2022-09-09T13:28:34;100585.44;;;17.29;51.04
60845;BME280;47984;51.250;6.712;2022-09-09T13:31:03;100587.00;;;17.32;50.97
60845;BME280;47984;51.250;6.712;2022-09-09T13:33:36;100566.00;;;17.32;50.94
60845;BME280;47984;51.250;6.712;2022-09-09T13:36:08;100576.25;;;17.36;50.61
60845;BME280;47984;51.250;6.712;2022-09-09T13:38:58;100564.06;;;17.35;50.61
60845;BME280;47984;51.250;6.712;2022-09-09T13:41:33;100566.38;;;17.40;50.41
60845;BME280;47984;51.250;6.712;2022-09-09T13:44:02;100560.19;;;17.41;50.52
60845;BME280;47984;51.250;6.712;2022-09-09T13:46:39;100557.66;;;17.39;50.31
60845;BME280;47984;51.250;6.712;2022-09-09T13:51:45;100561.13;;;17.40;50.39
60845;BME280;47984;51.250;6.712;2022-09-09T13:54:15;100567.34;;;17.39;50.68
60845;BME280;47984;51.250;6.712;2022-09-09T13:56:43;100568.44;;;17.35;50.93
60845;BME280;47984;51.250;6.712;2022-09-09T13:59:19;100575.66;;;17.31;50.78
60845;BME280;47984;51.250;6.712;2022-09-09T14:01:47;100571.34;;;17.30;51.05
60845;BME280;47984;51.250;6.712;2022-09-09T14:04:15;100562.72;;;17.28;50.60
60845;BME280;47984;51.250;6.712;2022-09-09T14:06:43;100564.41;;;17.29;50.75
60845;BME280;47984;51.250;6.712;2022-09-09T14:09:13;100557.38;;;17.30;50.73
60845;BME280;47984;51.250;6.712;2022-09-09T14:11:43;100560.19;;;17.27;50.74
60845;BME280;47984;51.250;6.712;2022-09-09T14:14:10;100562.44;;;17.33;50.88
60845;BME280;47984;51.250;6.712;2022-09-09T14:16:37;100556.34;;;17.32;51.02
60845;BME280;47984;51.250;6.712;2022-09-09T14:19:04;100563.19;;;17.35;50.90
60845;BME280;47984;51.250;6.712;2022-09-09T14:21:31;100566.69;;;17.35;51.04
60845;BME280;47984;51.250;6.712;2022-09-09T14:23:59;100568.44;;;17.35;50.52
60845;BME280;47984;51.250;6.712;2022-09-09T14:26:26;100599.97;;;17.35;51.05
60845;BME280;47984;51.250;6.712;2022-09-09T14:28:56;100603.72;;;17.31;50.70
60845;BME280;47984;51.250;6.712;2022-09-09T14:31:24;100620.63;;;17.27;50.57
60845;BME280;47984;51.250;6.712;2022-09-09T14:33:52;100633.00;;;17.24;50.59
60845;BME280;47984;51.250;6.712;2022-09-09T14:36:19;100622.59;;;17.23;50.51
60845;BME280;47984;51.250;6.712;2022-09-09T14:38:46;100612.34;;;17.18;50.58
60845;BME280;47984;51.250;6.712;2022-09-09T14:41:16;100610.56;;;17.19;50.10
60845;BME280;47984;51.250;6.712;2022-09-09T14:43:46;100603.13;;;17.11;50.86
60845;BME280;47984;51.250;6.712;2022-09-09T14:46:16;100610.44;;;17.06;50.97
60845;BME280;47984;51.250;6.712;2022-09-09T14:48:43;100629.09;;;17.01;50.72
60845;BME280;47984;51.250;6.712;2022-09-09T14:51:14;100620.78;;;16.93;50.99
60845;BME280;47984;51.250;6.712;2022-09-09T14:53:43;100624.59;;;16.88;50.58
60845;BME280;47984;51.250;6.712;2022-09-09T14:56:13;100617.00;;;16.83;50.92
60845;BME280;47984;51.250;6.712;2022-09-09T14:58:40;100612.19;;;16.75;50.92
60845;BME280;47984;51.250;6.712;2022-09-09T15:01:09;100610.00;;;16.68;50.59
60845;BME280;47984;51.250;6.712;2022-09-09T15:03:41;100602.38;;;16.63;50.86
60845;BME280;47984;51.250;6.712;2022-09-09T15:06:13;100597.47;;;16.57;51.21
60845;BME280;47984;51.250;6.712;2022-09-09T15:08:42;100590.72;;;16.53;51.17
60845;BME280;47984;51.250;6.712;2022-09-09T15:11:11;100593.63;;;16.48;51.19
60845;BME280;47984;51.250;6.712;2022-09-09T15:13:40;100589.56;;;16.43;50.66
60845;BME280;47984;51.250;6.712;2022-09-09T15:16:18;100588.03;;;16.39;51.32
60845;BME280;47984;51.250;6.712;2022-09-09T15:18:46;100582.94;;;16.36;51.22
60845;BME280;47984;51.250;6.712;2022-09-09T15:21:16;100578.75;;;16.33;51.15